x

West Lake Ontario - Grimsby (45139) Wave Buoy

11:00pm - Sun 14th Sep 2014 All times are CDT. -5 hours from GMT.

  • Sig Wave height 0.7ft
  • Peak Period 2s
  • Wind
    11mph, 13mph gusts
  • Sea Temp 62°f
  • Air Temp 59°f
  • Sea Pressure 1022.9mb
  • West Lake Ontario - Grimsby
  • West Lake Ontario - Grimsby

More Historic Weather Station data

Upgrade to MSW Pro to gain access to the past 30 days of data for over 8000 Wavebouys and Weather Stations around the globe.

Join Pro

Comparision Forecast

View Surf forecast
   
Sun 09/14 11:00pm 0.7ft 2s 11 13 mph 1022.9mb 62f 59f
10:00pm 0.7ft 2s 11 16 mph 1023mb 62f 58f
9:00pm 0.7ft 3s 11 13 mph 1023mb 62f 59f
8:00pm 0.3ft 2s 7 9 mph 1023.4mb 62f 58f
7:00pm 0.7ft 2s 7 9 mph 1023.5mb 62f 59f
6:00pm 0.7ft 2s 9 11 mph 1023.3mb 62f 58f
5:00pm 0.7ft 2s 9 11 mph 1023.5mb 62f 58f
4:00pm 0.3ft 2s 9 11 mph 1023.8mb 62f 58f
3:00pm 0.3ft 2s 9
mph
1024.3mb 62f 58f
2:00pm 0.3ft 2s 9
mph
1024.8mb 62f 57f
1:00pm 0.3ft 3s 9
mph
1025.6mb 62f 57f
12:00pm 0.3ft 3s 7
mph
1026.5mb 62f 56f
11:00am 0.3ft 2s 2 4 mph 1026.9mb 62f 56f
10:00am 0.3ft 3s 2 4 mph 1027.5mb 61f 56f
9:00am 0.3ft 3s 4
mph
1028mb 60f 54f
8:00am 0.3ft 3s 7
mph
1028mb 59f 54f
7:00am 0.3ft 2s 7 9 mph 1027.9mb 59f 54f
6:00am 0.3ft 2s 2 4 mph 1027.8mb 58f 55f
5:00am 0.7ft 2s 4 7 mph 1027.4mb 58f 53f
4:00am 0.3ft 5s 7 9 mph 1027.2mb 58f 54f
3:00am 0.7ft 5s 4 7 mph 1027.3mb 58f 54f
2:00am 1ft 5s 7
mph
1027mb 58f 54f
1:00am 0.7ft 5s 4 9 mph 1027mb 58f 54f
12:00am 1ft 3s 7 9 mph 1027mb 59f 54f
Sat 09/13 11:00pm 1.3ft 3s 9 11 mph 1026.9mb 59f 55f
10:00pm 1.3ft 3s 11 13 mph 1026.4mb 59f 55f
9:00pm 1.3ft 3s 13 18 mph 1025.8mb 59f 55f
8:00pm 1.3ft 3s 11 13 mph 1025mb 59f 56f
7:00pm 1.3ft 3s 11 13 mph 1024.4mb 59f 57f
6:00pm 1.3ft 3s 13 16 mph 1023.5mb 59f 58f
5:00pm 1.6ft 5s 11 16 mph 1023mb 59f 59f
4:00pm 2ft 5s 7 9 mph 1022.6mb 59f 57f
3:00pm 2ft 3s 13 18 mph 1021.5mb 59f 56f
2:00pm 2.5ft 5s 13
mph
1020.1mb 59f 59f
1:00pm 2ft 5s 18 20 mph 1019.3mb 60f 59f
12:00pm 2.5ft 5s 9 11 mph 1019.1mb 60f 55f
11:00am 2.5ft 5s 9 11 mph 1018.1mb 60f 53f
10:00am 2.5ft 5s 9 13 mph 1018mb 59f 52f
9:00am 2.5ft 5s 2 4 mph 1017.5mb 59f 53f
8:00am 3ft 5s 4 7 mph 1017.6mb 59f 53f
7:00am 2ft 5s 11 13 mph 1018mb 59f 54f
6:00am 1.6ft 4s 13 18 mph 1019.1mb 59f 55f
5:00am 1.6ft 4s 16 18 mph 1019.1mb 59f 55f
4:00am 1.3ft 3s 16 18 mph 1019.6mb 59f 55f
3:00am 1.3ft 3s 13 16 mph 1020.5mb 59f 55f
2:00am 1.3ft 3s 13 18 mph 1020.6mb 59f 55f
1:00am 1.3ft 3s 13 18 mph 1021.7mb 59f 55f
12:00am 1ft 3s 11 13 mph 1022.4mb 59f 54f
Fri 09/12 11:00pm 1ft 3s 13 16 mph 1022.8mb 60f 56f
10:00pm 1ft 4s 13 16 mph 1023.8mb 60f 56f
9:00pm 1ft 4s 11 13 mph 1024mb 60f 57f
8:00pm 1ft 4s 9 11 mph 1024.1mb 60f 57f
7:00pm 1ft 4s 4 7 mph 1024.3mb 60f 56f
6:00pm 1ft 4s 7
mph
1024.2mb 60f 56f
5:00pm 1ft 4s 7 9 mph 1024.4mb 61f 56f
4:00pm 1ft 4s 4 7 mph 1024.8mb 61f 56f
3:00pm 1.3ft 4s 4
mph
1025.1mb 61f 55f
2:00pm 1.3ft 4s 4
mph
1025.5mb 61f 55f
1:00pm 1.6ft 4s 4 7 mph 1025.3mb 60f 55f
12:00pm 1.6ft 4s 7 9 mph 1025.7mb 60f 55f
11:00am 1.3ft 4s 11 13 mph 1025.5mb 61f 55f
10:00am 1.3ft 3s 11 16 mph 1025.9mb 61f 55f
9:00am 1.3ft 4s 11 13 mph 1025.6mb 60f 55f
8:00am 1.3ft 3s 11 16 mph 1025.3mb 60f 55f
7:00am 1.3ft 3s 13 16 mph 1024.7mb 61f 55f
6:00am 1.3ft 3s 13 16 mph 1024.5mb 61f 54f
5:00am 1.3ft 3s 13 18 mph 1023.7mb 61f 55f
4:00am 1ft 3s 11 13 mph 1023.1mb 61f 56f
3:00am 1.6ft 4s 11 13 mph 1022.6mb 61f 56f
2:00am 2ft 4s 11 13 mph 1022.4mb 61f 55f
1:00am 2ft 3s 13 16 mph 1022mb 60f 55f
12:00am 2ft 3s 16 18 mph 1021.8mb 60f 56f
Thu 09/11 11:00pm 2ft 3s 18 20 mph 1021.2mb 60f 56f
10:00pm 2ft 4s 13 16 mph 1020.9mb 60f 57f
9:00pm 2ft 4s 16 18 mph 1020.3mb 60f 57f
8:00pm 1.3ft 3s 16 18 mph 1019.7mb 60f 57f
7:00pm 1ft 2s 11 13 mph 1018.7mb 60f 59f
6:00pm 1ft 3s 13
mph
1018mb 60f 59f
5:00pm 1.3ft 3s 11 13 mph 1017.3mb 60f 59f
4:00pm 1.6ft 3s 16 18 mph 1016.7mb 60f 59f
3:00pm 1.6ft 3s 16 20 mph 1015.7mb 60f 60f
2:00pm 1.6ft 3s 18 20 mph 1014.7mb 61f 60f
1:00pm 2ft 3s 16 18 mph 1014.1mb 61f 59f
12:00pm 2.5ft 4s 18 22 mph 1013.2mb 60f 58f
11:00am 2.5ft 4s 20 25 mph 1012.6mb 59f 58f
10:00am 3ft 4s 18 25 mph 1012.1mb 58f 57f
9:00am 2.5ft 4s 22 27 mph 1010.9mb 57f 57f
8:00am 3ft 4s 27 34 mph 1008.7mb 58f 59f
7:00am 3ft 4s 22 27 mph 1007mb 58f 60f
6:00am 3ft 4s 27 34 mph 1004.2mb 59f 64f